Share

Protection, KS (67127)

11:57 PM CDT on April 23, 2014 (GMT -0500)
Dodge City Regional (KDDC) Elev 2592 ft | 37.76 °N, 99.97 °W | Change Station

Current weather conditions updated 5 minutes ago

Clear
Clear
64 °F
Feels Like 64 °F
N
25
Wind Variable Wind from South
Gusts 32 mph
Sunrise 6:52 AM
Sunset 8:20 PM
Moon Waning Crescent

Tomorrow is forecast to be Much Cooler than today.

Pressure 29.49 in
Visibility 10.0 miles
Clouds Clear
Dew Point 53 °F
Humidity 67%
Rainfall 0.00 in
Snow Depth Not available.
UV 0 out of 16
Pollen 11.80 out of 12
Air Quality Not available.
Flu Activity No Activity
METAR KDDC 240452Z AUTO 17022G28KT 10SM CLR 18/12 A2957 RMK AO2 PK WND 16033/0438 SLP985 T01780117

More Conditions Fewer Conditions

Pressure 29.49 in
Visibility 10.0 miles
Clouds Clear
Dew Point 53 °F
Humidity 67%
Rainfall 0.00 in
Snow Depth Not available.
UV 0 out of 16
Pollen 11.80 out of 12
Air Quality Not available.
Flu Activity No Activity
METAR KDDC 240452Z AUTO 17022G28KT 10SM CLR 18/12 A2957 RMK AO2 PK WND 16033/0438 SLP985 T01780117

More Conditions Fewer Conditions

10-Day Weather Forecast

Almanac

Astronomy

Apr. 23, 2014 Rise Set
Actual Time 6:52 AM CDT 8:20 PM CDT
Civil Twilight 6:25 AM CDT 8:47 PM CDT
Nautical Twilight 5:52 AM CDT 9:20 PM CDT
Astronomical Twilight 5:18 AM CDT 9:55 PM CDT
Moon 3:17 AM CDT (4/23) 2:38 PM CDT (4/23)
Length of Visible Light 14h 22m
Length of Day
13h 27m
Tomorrow will be 2m 10s longer.
Waning Crescent, 29% of the Moon is Illuminated
Apr 24
Waning Crescent
Apr 29
New
May 6
First Quarter
May 14
Full
May 21
Last Quarter

Yesterday's Extremes

State Highs State Lows

Community

  • Stacked
    Stacked
  • Balance
    Balance
  • Nestled In
    Nestled In
  • Stunning Sunrise
    Stunning Sunrise
  • spring flowers
    spring flowers

WunderPhotos

Upload Photos

1,704,562 photos uploaded!

WunderBlogs® & News

Nearby

Snow Depth

Station Depth Elevation
No new snow has been reported.

Coastal Water Temperatures

Place Temperature
No Stations Reporting

Earthquake Activity

City Distance Mag. Time & Date
Enid, Oklahoma 100 miles 2.9 1:11 PM CDT
2014-04-19
Medford, Oklahoma 96 miles 2.9 3:07 AM CDT
2014-04-19
Helena, Oklahoma 84 miles 3.4 6:50 AM CDT
2014-04-17
Minimum magnitude displayed is 2.5.

Nearby Weather Stations

There are no personal weather stations in this area.

What do you think?

We're not finished. Please let us know what you like, what you don't like, and what you are still missing.